createdAt,value
2022-12-18T00:00:32.472Z,21.80
2022-12-18T00:03:04.070Z,21.30
2022-12-18T00:05:36.539Z,21.70
2022-12-18T00:08:09.473Z,22.50
2022-12-18T00:10:41.188Z,23.00
2022-12-18T00:13:12.756Z,23.70
2022-12-18T00:15:44.540Z,23.80
2022-12-18T00:18:18.966Z,21.00
2022-12-18T00:20:52.320Z,22.80
2022-12-18T00:23:23.842Z,22.50
2022-12-18T00:25:55.323Z,20.60
2022-12-18T00:28:28.040Z,22.30
2022-12-18T00:31:06.138Z,21.00
2022-12-18T00:33:38.541Z,24.20
2022-12-18T00:36:14.137Z,22.00
2022-12-18T00:38:45.867Z,22.70
2022-12-18T00:41:39.944Z,22.70
2022-12-18T00:44:13.179Z,23.20
2022-12-18T00:46:45.995Z,23.00
2022-12-18T00:49:18.559Z,22.00
2022-12-18T00:51:51.570Z,21.10
2022-12-18T00:54:23.452Z,22.80
2022-12-18T00:56:56.420Z,20.60
2022-12-18T00:59:28.347Z,25.00
2022-12-18T01:02:00.013Z,23.50
2022-12-18T01:04:33.468Z,23.70
2022-12-18T01:07:05.074Z,23.20
2022-12-18T01:09:36.991Z,22.10
2022-12-18T01:12:10.229Z,20.60
2022-12-18T01:14:42.141Z,23.30
2022-12-18T01:17:13.812Z,21.30
2022-12-18T01:19:46.025Z,21.50
2022-12-18T01:22:17.642Z,21.60
2022-12-18T01:24:49.278Z,21.80
2022-12-18T01:27:20.848Z,20.70
2022-12-18T01:29:53.357Z,22.50
2022-12-18T01:32:25.452Z,21.50
2022-12-18T01:34:57.082Z,20.80
2022-12-18T01:37:28.777Z,22.10
2022-12-18T01:40:00.420Z,19.20
2022-12-18T01:42:32.071Z,21.20
2022-12-18T01:45:24.017Z,22.00
2022-12-18T01:47:57.929Z,21.40
2022-12-18T01:50:33.794Z,22.30
2022-12-18T01:53:08.644Z,22.30
2022-12-18T01:55:45.286Z,23.30
2022-12-18T01:58:18.052Z,24.20
2022-12-18T02:00:50.067Z,23.40
2022-12-18T02:03:21.824Z,23.00
2022-12-18T02:06:00.078Z,24.10
2022-12-18T02:08:36.646Z,24.40
2022-12-18T02:11:13.687Z,23.70
2022-12-18T02:13:55.282Z,21.90
2022-12-18T02:16:32.840Z,23.80
2022-12-18T02:19:08.992Z,23.40
2022-12-18T02:21:51.350Z,22.40
2022-12-18T02:24:36.788Z,23.70
2022-12-18T02:27:10.938Z,20.80
2022-12-18T02:29:54.331Z,23.60
2022-12-18T02:32:34.139Z,24.70
2022-12-18T02:35:08.734Z,18.70
2022-12-18T02:37:41.719Z,22.60
2022-12-18T02:40:16.546Z,23.00
2022-12-18T02:45:18.452Z,20.70
2022-12-18T02:47:52.278Z,21.60
2022-12-18T02:50:31.452Z,21.20
2022-12-18T02:53:12.836Z,22.50
2022-12-18T02:55:57.025Z,20.10
2022-12-18T02:58:36.922Z,23.80
2022-12-18T03:01:17.843Z,24.40
2022-12-18T03:03:55.047Z,24.30
2022-12-18T03:06:31.928Z,25.30
2022-12-18T03:09:10.789Z,22.70
2022-12-18T03:12:08.209Z,24.30
2022-12-18T03:14:43.564Z,23.30
2022-12-18T03:17:20.127Z,26.20
2022-12-18T03:19:55.012Z,24.00
2022-12-18T03:22:29.936Z,22.60
2022-12-18T03:25:03.820Z,24.20
2022-12-18T03:27:39.288Z,23.90
2022-12-18T03:30:15.643Z,25.30
2022-12-18T03:32:50.827Z,23.90
2022-12-18T03:35:29.122Z,23.80
2022-12-18T03:38:00.988Z,24.70
2022-12-18T03:40:42.272Z,25.50
2022-12-18T03:43:19.472Z,22.40
2022-12-18T03:45:55.495Z,24.50
2022-12-18T03:48:36.761Z,26.10
2022-12-18T03:51:12.757Z,24.20
2022-12-18T03:53:53.177Z,23.10
2022-12-18T03:56:26.656Z,24.90
2022-12-18T03:58:59.427Z,25.00
2022-12-18T04:01:36.399Z,25.70
2022-12-18T04:04:10.994Z,24.60
2022-12-18T04:06:43.503Z,22.60
2022-12-18T04:09:15.381Z,23.70
2022-12-18T04:11:47.074Z,25.90
2022-12-18T04:14:18.919Z,25.00
2022-12-18T04:16:50.618Z,24.10
2022-12-18T04:19:22.216Z,24.80
2022-12-18T04:21:53.889Z,23.20
2022-12-18T04:24:25.580Z,24.80
2022-12-18T04:26:57.186Z,23.50
2022-12-18T04:29:32.635Z,24.40
2022-12-18T04:32:09.048Z,23.70
2022-12-18T04:34:40.645Z,23.90
2022-12-18T04:37:12.608Z,24.00
2022-12-18T04:39:44.345Z,23.70
2022-12-18T04:42:15.842Z,25.50
2022-12-18T04:44:47.323Z,23.90
2022-12-18T04:47:18.889Z,24.20
2022-12-18T04:49:52.864Z,24.40
2022-12-18T04:52:24.558Z,22.30
2022-12-18T04:54:56.077Z,24.70
2022-12-18T04:57:27.794Z,24.10
2022-12-18T04:59:59.405Z,24.90
2022-12-18T05:02:31.166Z,22.80
2022-12-18T05:05:02.813Z,23.30
2022-12-18T05:07:34.522Z,23.80
2022-12-18T05:10:06.913Z,23.10
2022-12-18T05:13:00.058Z,24.10
2022-12-18T05:15:34.796Z,23.50
2022-12-18T05:18:07.354Z,24.20
2022-12-18T05:20:38.844Z,23.70
2022-12-18T05:23:10.556Z,23.20
2022-12-18T05:25:42.010Z,22.80
2022-12-18T05:28:13.576Z,21.10
2022-12-18T05:30:45.062Z,22.70
2022-12-18T05:33:16.586Z,24.00
2022-12-18T05:35:52.456Z,23.80
2022-12-18T05:38:24.746Z,22.40
2022-12-18T05:40:57.084Z,22.40
2022-12-18T05:43:30.050Z,23.70
2022-12-18T05:46:05.755Z,22.30
2022-12-18T05:48:37.586Z,22.80
2022-12-18T05:51:11.212Z,23.20
2022-12-18T05:53:43.593Z,22.40
2022-12-18T05:56:17.527Z,21.60
2022-12-18T05:58:50.253Z,22.30
2022-12-18T06:01:24.306Z,23.20
2022-12-18T06:03:56.405Z,22.70
2022-12-18T06:06:29.784Z,24.90
2022-12-18T06:09:02.631Z,23.10
2022-12-18T06:11:34.244Z,25.60
2022-12-18T06:14:06.384Z,24.60
2022-12-18T06:16:38.116Z,24.60
2022-12-18T06:19:09.953Z,24.80
2022-12-18T06:21:41.438Z,22.20
2022-12-18T06:24:13.041Z,22.00
2022-12-18T06:26:44.543Z,24.30
2022-12-18T06:29:16.153Z,21.20
2022-12-18T06:31:47.787Z,22.90
2022-12-18T06:34:19.309Z,21.60
2022-12-18T06:36:50.892Z,21.60
2022-12-18T06:39:22.544Z,22.10
2022-12-18T06:41:54.217Z,21.10
2022-12-18T06:44:25.810Z,22.40
2022-12-18T06:46:57.404Z,22.50
2022-12-18T06:49:30.706Z,23.00
2022-12-18T06:52:02.429Z,21.30
2022-12-18T06:54:33.904Z,19.90
2022-12-18T06:57:05.568Z,21.80
2022-12-18T06:59:37.160Z,21.90
2022-12-18T07:02:08.840Z,21.70
2022-12-18T07:04:40.544Z,20.50
2022-12-18T07:07:12.287Z,21.70
2022-12-18T07:09:46.670Z,24.10
2022-12-18T07:12:18.380Z,22.30
2022-12-18T07:14:50.081Z,20.80
2022-12-18T07:17:21.617Z,22.60
2022-12-18T07:19:54.222Z,20.10
2022-12-18T07:22:27.540Z,23.30
2022-12-18T07:24:58.954Z,23.30
2022-12-18T07:27:30.654Z,23.40
2022-12-18T07:30:02.628Z,22.80
2022-12-18T07:32:34.649Z,26.00
2022-12-18T07:35:06.712Z,25.40
2022-12-18T07:37:38.281Z,21.70
2022-12-18T07:40:12.238Z,23.70
2022-12-18T07:42:43.746Z,29.30
2022-12-18T07:45:15.921Z,28.40
2022-12-18T07:47:47.453Z,25.60
2022-12-18T07:50:19.506Z,23.60
2022-12-18T07:52:51.209Z,21.80
2022-12-18T07:55:22.686Z,21.60
2022-12-18T07:57:59.257Z,22.00
2022-12-18T08:00:32.533Z,22.50
2022-12-18T08:03:04.476Z,22.90
2022-12-18T08:05:36.038Z,23.40
2022-12-18T08:08:07.920Z,25.60
2022-12-18T08:10:40.281Z,42.80
2022-12-18T08:13:11.758Z,42.60
2022-12-18T08:15:43.290Z,44.60
2022-12-18T08:18:14.730Z,39.00
2022-12-18T08:20:46.393Z,40.00
2022-12-18T08:23:18.051Z,38.40
2022-12-18T08:25:49.915Z,35.70
2022-12-18T08:28:21.821Z,36.10
2022-12-18T08:30:57.612Z,30.60
2022-12-18T08:33:30.444Z,27.10
2022-12-18T08:36:02.704Z,25.60
2022-12-18T08:38:35.989Z,24.60
2022-12-18T08:41:09.088Z,24.30
2022-12-18T08:43:57.641Z,24.60
2022-12-18T08:46:33.764Z,22.50
2022-12-18T08:49:05.917Z,22.70
2022-12-18T08:51:38.429Z,24.70
2022-12-18T08:54:13.640Z,24.40
2022-12-18T08:56:45.190Z,26.20
2022-12-18T08:59:19.770Z,25.50
2022-12-18T09:01:52.612Z,26.90
2022-12-18T09:04:24.540Z,26.00
2022-12-18T09:06:56.225Z,26.00
2022-12-18T09:09:28.249Z,22.40
2022-12-18T09:11:59.728Z,29.00
2022-12-18T09:14:31.460Z,27.60
2022-12-18T09:17:03.250Z,27.80
2022-12-18T09:19:35.170Z,28.90
2022-12-18T09:22:06.647Z,31.50
2022-12-18T09:24:38.281Z,27.00
2022-12-18T09:27:10.053Z,29.70
2022-12-18T09:29:41.661Z,29.40
2022-12-18T09:32:16.369Z,29.90
2022-12-18T09:34:53.619Z,30.90
2022-12-18T09:37:25.220Z,29.00
2022-12-18T09:39:56.851Z,28.50
2022-12-18T09:42:28.520Z,27.90
2022-12-18T09:45:01.075Z,29.00
2022-12-18T09:47:38.773Z,29.70
2022-12-18T09:50:24.800Z,28.90
2022-12-18T09:52:59.468Z,29.00
2022-12-18T09:55:37.572Z,30.60
2022-12-18T09:58:17.967Z,30.00
2022-12-18T10:00:49.581Z,29.80
2022-12-18T10:03:21.276Z,28.80
2022-12-18T10:06:02.129Z,31.40
2022-12-18T10:08:45.339Z,30.10
2022-12-18T10:11:32.390Z,33.50
2022-12-18T10:14:11.422Z,28.80
2022-12-18T10:16:52.086Z,31.80
2022-12-18T10:19:53.995Z,28.90
2022-12-18T10:22:40.789Z,27.40
2022-12-18T10:25:24.574Z,31.40
2022-12-18T10:28:00.273Z,30.50
2022-12-18T10:30:31.983Z,33.50
2022-12-18T10:33:06.972Z,31.80
2022-12-18T10:35:39.328Z,31.10
2022-12-18T10:38:27.121Z,29.90
2022-12-18T10:41:01.143Z,31.40
2022-12-18T10:43:35.037Z,31.90
2022-12-18T10:46:18.284Z,30.80
2022-12-18T10:49:00.546Z,27.90
2022-12-18T10:51:35.718Z,30.50
2022-12-18T10:54:09.717Z,28.50
2022-12-18T10:56:41.892Z,28.00
2022-12-18T10:59:17.094Z,27.00
2022-12-18T11:01:56.505Z,27.00
2022-12-18T11:04:30.109Z,26.60
2022-12-18T11:07:04.281Z,28.90
2022-12-18T11:09:37.442Z,26.70
2022-12-18T11:12:18.987Z,25.50
2022-12-18T11:14:53.365Z,26.20
2022-12-18T11:17:30.822Z,30.20
2022-12-18T11:20:04.055Z,24.80
2022-12-18T11:22:37.894Z,26.10
2022-12-18T11:25:33.032Z,27.70
2022-12-18T11:28:07.392Z,27.30
2022-12-18T11:30:40.404Z,27.70
2022-12-18T11:33:18.345Z,27.70
2022-12-18T11:35:54.591Z,29.70
2022-12-18T11:38:29.519Z,30.60
2022-12-18T11:41:06.770Z,29.30
2022-12-18T11:43:41.671Z,28.50
2022-12-18T11:46:19.812Z,27.30
2022-12-18T11:48:59.148Z,29.00
2022-12-18T11:51:36.263Z,29.30
2022-12-18T11:54:15.690Z,30.70
2022-12-18T11:56:51.835Z,28.90
2022-12-18T11:59:33.040Z,28.90
2022-12-18T12:02:19.073Z,27.90
2022-12-18T12:05:06.858Z,26.90
2022-12-18T12:07:47.915Z,27.80
2022-12-18T12:10:36.420Z,26.80
2022-12-18T12:13:25.253Z,25.30
2022-12-18T12:16:09.517Z,25.30
2022-12-18T12:18:56.456Z,26.30
2022-12-18T12:21:37.356Z,28.70
2022-12-18T12:24:24.375Z,28.60
2022-12-18T12:27:08.115Z,27.90
2022-12-18T12:29:52.499Z,28.80
2022-12-18T12:32:36.157Z,29.60
2022-12-18T12:35:21.089Z,31.30
2022-12-18T12:38:01.529Z,31.50
2022-12-18T12:41:00.552Z,31.20
2022-12-18T12:43:36.378Z,29.90
2022-12-18T12:46:11.258Z,30.70
2022-12-18T12:48:48.733Z,29.00
2022-12-18T12:51:24.003Z,31.80
2022-12-18T12:53:59.016Z,30.80
2022-12-18T12:56:48.802Z,28.00
2022-12-18T12:59:27.888Z,28.80
2022-12-18T13:02:07.431Z,30.70
2022-12-18T13:04:45.715Z,28.70
2022-12-18T13:07:23.865Z,28.90
2022-12-18T13:10:26.962Z,28.80
2022-12-18T13:13:03.440Z,27.60
2022-12-18T13:16:06.599Z,28.70
2022-12-18T13:18:39.900Z,28.10
2022-12-18T13:21:23.179Z,28.00
2022-12-18T13:23:55.525Z,29.30
2022-12-18T13:26:37.182Z,32.90
2022-12-18T13:29:09.361Z,32.20
2022-12-18T13:32:04.246Z,32.00
2022-12-18T13:34:36.418Z,30.80
2022-12-18T13:37:45.145Z,28.40
2022-12-18T13:40:58.149Z,29.00
2022-12-18T13:43:33.959Z,30.90
2022-12-18T13:46:23.589Z,30.00
2022-12-18T13:49:05.785Z,34.70
2022-12-18T13:51:41.999Z,32.00
2022-12-18T13:54:27.417Z,32.90
2022-12-18T13:56:58.988Z,34.90
2022-12-18T13:59:35.663Z,32.80
2022-12-18T14:02:17.601Z,33.00
2022-12-18T14:04:53.173Z,33.10
2022-12-18T14:07:27.186Z,33.10
2022-12-18T14:10:26.041Z,30.60
2022-12-18T14:13:00.371Z,30.70
2022-12-18T14:15:37.573Z,30.70
2022-12-18T14:18:23.264Z,29.20
2022-12-18T14:20:57.638Z,34.70
2022-12-18T14:23:35.713Z,31.50
2022-12-18T14:26:28.881Z,29.20
2022-12-18T14:29:02.882Z,28.10
2022-12-18T14:31:36.268Z,30.90
2022-12-18T14:34:07.882Z,28.30
2022-12-18T14:36:41.260Z,28.50
2022-12-18T14:39:21.100Z,29.00
2022-12-18T14:41:55.157Z,30.10
2022-12-18T14:44:34.564Z,27.80
2022-12-18T14:47:18.760Z,26.10
2022-12-18T14:49:52.186Z,25.60
2022-12-18T14:52:30.516Z,26.70
2022-12-18T14:55:02.501Z,26.10
2022-12-18T14:57:41.982Z,26.50
2022-12-18T15:00:25.626Z,30.10
2022-12-18T15:02:59.478Z,28.60
2022-12-18T15:05:34.667Z,28.50
2022-12-18T15:08:21.733Z,30.80
2022-12-18T15:10:55.727Z,31.80
2022-12-18T15:13:30.357Z,30.30
2022-12-18T15:16:14.759Z,29.40
2022-12-18T15:18:56.423Z,27.40
2022-12-18T15:21:32.412Z,27.10
2022-12-18T15:24:06.027Z,28.00
2022-12-18T15:26:42.957Z,23.40
2022-12-18T15:29:28.061Z,25.60
2022-12-18T15:32:23.873Z,26.20
2022-12-18T15:35:15.184Z,24.70
2022-12-18T15:37:49.120Z,24.80
2022-12-18T15:40:27.146Z,22.70
2022-12-18T15:43:18.643Z,22.80
2022-12-18T15:45:52.239Z,21.70
2022-12-18T15:48:26.848Z,22.30
2022-12-18T15:51:02.167Z,21.60
2022-12-18T15:53:37.833Z,23.30
2022-12-18T15:56:35.413Z,23.50
2022-12-18T15:59:14.810Z,19.90
2022-12-18T16:01:50.739Z,21.40
2022-12-18T16:04:27.177Z,23.50
2022-12-18T16:07:17.638Z,23.80
2022-12-18T16:09:54.707Z,24.60
2022-12-18T16:12:31.116Z,25.70
2022-12-18T16:15:06.791Z,24.20
2022-12-18T16:17:43.891Z,25.70
2022-12-18T16:20:20.766Z,26.90
2022-12-18T16:22:58.168Z,30.50
2022-12-18T16:25:32.952Z,27.90
2022-12-18T16:28:06.756Z,25.30
2022-12-18T16:30:45.435Z,27.50
2022-12-18T16:33:18.815Z,27.20
2022-12-18T16:36:00.426Z,29.40
2022-12-18T16:38:35.864Z,29.70
2022-12-18T16:41:38.152Z,27.20
2022-12-18T16:44:15.935Z,26.40
2022-12-18T16:46:50.051Z,25.10
2022-12-18T16:49:27.752Z,24.30
2022-12-18T16:52:02.672Z,26.40
2022-12-18T16:54:37.550Z,24.70
2022-12-18T16:57:13.635Z,22.30
2022-12-18T16:59:51.467Z,23.30
2022-12-18T17:02:29.197Z,23.80
2022-12-18T17:05:04.356Z,24.40
2022-12-18T17:07:39.729Z,23.10
2022-12-18T17:10:15.465Z,23.40
2022-12-18T17:12:48.273Z,22.20
2022-12-18T17:15:22.705Z,24.20
2022-12-18T17:17:57.091Z,23.90
2022-12-18T17:20:31.517Z,22.30
2022-12-18T17:23:08.157Z,21.70
2022-12-18T17:25:44.677Z,24.80
2022-12-18T17:28:17.541Z,22.90
2022-12-18T17:30:51.044Z,23.90
2022-12-18T17:33:24.282Z,24.20
2022-12-18T17:36:02.113Z,24.30
2022-12-18T17:38:36.940Z,22.30
2022-12-18T17:41:12.338Z,23.20
2022-12-18T17:43:52.559Z,24.90
2022-12-18T17:46:32.177Z,24.10
2022-12-18T17:49:07.057Z,24.60
2022-12-18T17:51:43.369Z,26.50
2022-12-18T17:54:19.333Z,27.60
2022-12-18T17:56:57.021Z,25.10
2022-12-18T17:59:34.181Z,26.70
2022-12-18T18:02:08.091Z,24.90
2022-12-18T18:04:42.496Z,24.80
2022-12-18T18:07:20.821Z,25.90
2022-12-18T18:09:55.594Z,27.20
2022-12-18T18:12:49.411Z,25.30
2022-12-18T18:15:25.127Z,24.80
2022-12-18T18:17:58.974Z,24.70
2022-12-18T18:20:33.565Z,21.20
2022-12-18T18:23:07.251Z,21.20
2022-12-18T18:25:44.724Z,22.60
2022-12-18T18:28:18.979Z,20.60
2022-12-18T18:30:52.589Z,21.30
2022-12-18T18:33:27.050Z,21.40
2022-12-18T18:36:01.332Z,19.50
2022-12-18T18:38:35.559Z,20.20
2022-12-18T18:41:10.378Z,17.90
2022-12-18T18:46:19.349Z,15.40
2022-12-18T18:48:52.604Z,18.90
2022-12-18T18:51:28.863Z,19.60
2022-12-18T18:54:06.123Z,20.10
2022-12-18T18:59:33.297Z,20.20
2022-12-18T19:02:07.133Z,19.20
2022-12-18T19:04:44.736Z,19.00
2022-12-18T19:07:29.469Z,19.10
2022-12-18T19:10:07.265Z,16.20
2022-12-18T19:12:57.613Z,17.70
2022-12-18T19:15:30.962Z,17.70
2022-12-18T19:18:04.833Z,19.40
2022-12-18T19:20:42.006Z,18.50
2022-12-18T19:23:15.293Z,17.10
2022-12-18T19:25:50.762Z,19.40
2022-12-18T19:28:34.456Z,17.40
2022-12-18T19:31:13.652Z,15.80
2022-12-18T19:33:52.630Z,17.60
2022-12-18T19:36:28.744Z,17.90
2022-12-18T19:39:06.599Z,19.90
2022-12-18T19:41:40.970Z,19.80
2022-12-18T19:46:52.224Z,16.10
2022-12-18T19:49:34.707Z,17.80
2022-12-18T19:52:12.510Z,17.70
2022-12-18T19:54:45.998Z,18.30
2022-12-18T19:57:19.220Z,18.00
2022-12-18T19:59:53.147Z,18.20
2022-12-18T20:02:29.726Z,19.20
2022-12-18T20:05:08.994Z,15.60
2022-12-18T20:07:42.394Z,13.50
2022-12-18T20:10:19.492Z,17.20
2022-12-18T20:12:55.243Z,17.50
2022-12-18T20:15:29.908Z,16.20
2022-12-18T20:18:02.989Z,16.40
2022-12-18T20:20:37.421Z,13.50
2022-12-18T20:25:41.887Z,12.30
2022-12-18T20:28:15.325Z,12.30
2022-12-18T20:30:49.531Z,14.50
2022-12-18T20:33:30.418Z,17.20
2022-12-18T20:36:07.737Z,14.10
2022-12-18T20:38:40.933Z,14.20
2022-12-18T20:41:22.386Z,16.30
2022-12-18T20:43:55.693Z,15.30
2022-12-18T20:46:28.330Z,16.80
2022-12-18T20:49:02.204Z,16.40
2022-12-18T20:51:35.957Z,15.20
2022-12-18T20:54:12.899Z,15.30
2022-12-18T20:56:59.217Z,15.40
2022-12-18T20:59:37.680Z,15.90
2022-12-18T21:02:09.793Z,13.80
2022-12-18T21:04:42.873Z,14.70
2022-12-18T21:07:16.199Z,12.70
2022-12-18T21:09:50.438Z,13.60
2022-12-18T21:12:43.949Z,13.60
2022-12-18T21:15:31.761Z,11.40
2022-12-18T21:18:03.711Z,11.90
2022-12-18T21:20:36.395Z,13.10
2022-12-18T21:23:16.470Z,13.00
2022-12-18T21:25:54.724Z,13.90
2022-12-18T21:28:32.295Z,15.00
2022-12-18T21:31:08.139Z,12.10
2022-12-18T21:33:43.518Z,13.20
2022-12-18T21:36:16.270Z,13.10
2022-12-18T21:38:48.732Z,11.20
2022-12-18T21:41:42.276Z,11.20
2022-12-18T21:44:17.814Z,11.40
2022-12-18T21:46:58.232Z,11.90
2022-12-18T21:49:33.808Z,10.70
2022-12-18T21:52:06.178Z,11.50
2022-12-18T21:54:38.771Z,12.00
2022-12-18T21:57:13.808Z,12.50
2022-12-18T21:59:47.354Z,10.90
2022-12-18T22:02:21.586Z,12.30
2022-12-18T22:04:55.815Z,12.80
2022-12-18T22:07:29.345Z,11.10
2022-12-18T22:10:02.015Z,11.40
2022-12-18T22:12:43.742Z,11.30
2022-12-18T22:15:21.489Z,10.00
2022-12-18T22:18:00.352Z,11.00
2022-12-18T22:20:32.776Z,9.70
2022-12-18T22:23:06.091Z,11.50
2022-12-18T22:25:39.907Z,10.20
2022-12-18T22:28:29.244Z,10.00
2022-12-18T22:31:01.300Z,10.10
2022-12-18T22:33:33.071Z,10.80
2022-12-18T22:36:14.123Z,10.70
2022-12-18T22:38:49.857Z,9.60
2022-12-18T22:41:22.661Z,9.50
2022-12-18T22:43:54.225Z,9.60
2022-12-18T22:46:28.506Z,9.60
2022-12-18T22:49:00.335Z,9.20
2022-12-18T22:51:32.374Z,8.90
2022-12-18T22:54:04.020Z,9.50
2022-12-18T22:56:35.501Z,10.40
2022-12-18T22:59:07.491Z,10.50
2022-12-18T23:01:40.379Z,9.80
2022-12-18T23:04:13.206Z,9.70
2022-12-18T23:06:45.621Z,10.70
2022-12-18T23:09:21.350Z,10.50
2022-12-18T23:11:52.916Z,11.10
2022-12-18T23:14:25.327Z,9.60
2022-12-18T23:16:57.161Z,9.90
2022-12-18T23:19:29.389Z,9.20
2022-12-18T23:22:05.038Z,8.90
2022-12-18T23:24:39.246Z,9.10
2022-12-18T23:27:11.602Z,10.00
2022-12-18T23:29:44.020Z,10.60
2022-12-18T23:32:16.976Z,11.90
2022-12-18T23:34:52.044Z,11.30
2022-12-18T23:37:56.965Z,10.40
2022-12-18T23:40:16.516Z,10.30
2022-12-18T23:42:48.129Z,12.70
2022-12-18T23:45:19.877Z,11.00
2022-12-18T23:47:51.488Z,10.50
2022-12-18T23:50:29.094Z,11.60
2022-12-18T23:53:05.266Z,11.10
2022-12-18T23:55:41.887Z,9.60
2022-12-18T23:58:19.892Z,9.70
